SAS7308 LGIR-ENGM
Flight info
| Callsign | SAS7308 |
|---|---|
| Flight time | N/A |
| Altitude | 34000 |
| Route | EPALO M749 MIL UL617 AKORO DCT NEVRA/N0441F350 DCT KOROS/N0449F360 UN133 GIKAS DCT ATFIR DCT LOMOS DCT VERIG DCT KELEL DCT LUSID DCT SABAK DCT LUNIP |
| Aircraft | A320/M-SDE3FGHIJ1RWXYZ/ALB1 |
Departure
| Time | N/A |
|---|---|
| Airport | Heraklion International Nikos Kazantzakis Airport (LGIR) |
Arrival
| Time | 2026-05-07 18:23 |
|---|---|
| Airport | Oslo-Gardermoen International Airport (ENGM) |
| Time | Latitude | Longitude | Altitude | Speed | Heading |
|---|---|---|---|---|---|
| 2026-05-07 16:10 | 46.88454 | 21.86399 | 34042 ft | 455 kts | 337° |
| 2026-05-07 16:10 | 46.91468 | 21.84951 | 34044 ft | 455 kts | 337° |
| 2026-05-07 16:11 | 46.97491 | 21.82049 | 34049 ft | 456 kts | 337° |
| 2026-05-07 16:11 | 47.03515 | 21.79134 | 34061 ft | 455 kts | 337° |
| 2026-05-07 16:12 | 47.09527 | 21.76220 | 34054 ft | 455 kts | 337° |
| 2026-05-07 16:12 | 47.15510 | 21.73319 | 34054 ft | 454 kts | 337° |
| 2026-05-07 16:13 | 47.21281 | 21.69679 | 34043 ft | 449 kts | 330° |
| 2026-05-07 16:13 | 47.26938 | 21.65757 | 34038 ft | 449 kts | 329° |
| 2026-05-07 16:14 | 47.32565 | 21.61857 | 34046 ft | 449 kts | 330° |
| 2026-05-07 16:14 | 47.38236 | 21.57917 | 34033 ft | 448 kts | 330° |
| 2026-05-07 16:15 | 47.43876 | 21.53983 | 34055 ft | 448 kts | 330° |
| 2026-05-07 16:15 | 47.49479 | 21.50052 | 34047 ft | 447 kts | 329° |
| 2026-05-07 16:16 | 47.55088 | 21.46108 | 34043 ft | 448 kts | 329° |
| 2026-05-07 16:16 | 47.60722 | 21.42142 | 34039 ft | 448 kts | 329° |
| 2026-05-07 16:17 | 47.66366 | 21.38173 | 34058 ft | 448 kts | 329° |
| 2026-05-07 16:17 | 47.72004 | 21.34199 | 34046 ft | 448 kts | 329° |
| 2026-05-07 16:18 | 47.77593 | 21.30245 | 34032 ft | 447 kts | 329° |
| 2026-05-07 16:18 | 47.83232 | 21.26247 | 34028 ft | 447 kts | 329° |
| 2026-05-07 16:19 | 47.88853 | 21.22246 | 34018 ft | 447 kts | 329° |
| 2026-05-07 16:19 | 47.94446 | 21.18259 | 34015 ft | 447 kts | 329° |
| 2026-05-07 16:20 | 48.00067 | 21.14241 | 34018 ft | 447 kts | 329° |
| 2026-05-07 16:20 | 48.05660 | 21.10230 | 34014 ft | 447 kts | 329° |
| 2026-05-07 16:21 | 48.11291 | 21.06185 | 34002 ft | 448 kts | 329° |
| 2026-05-07 16:21 | 48.16918 | 21.02141 | 34001 ft | 448 kts | 329° |
| 2026-05-07 16:22 | 48.22504 | 20.98108 | 34024 ft | 448 kts | 329° |
| 2026-05-07 16:22 | 48.28134 | 20.94040 | 34003 ft | 449 kts | 329° |
| 2026-05-07 16:23 | 48.33783 | 20.89946 | 33989 ft | 450 kts | 329° |
| 2026-05-07 16:23 | 48.39405 | 20.85851 | 33988 ft | 450 kts | 329° |
| 2026-05-07 16:24 | 48.45057 | 20.81730 | 33987 ft | 451 kts | 329° |
| 2026-05-07 16:24 | 48.50721 | 20.77596 | 33998 ft | 451 kts | 329° |
| 2026-05-07 16:25 | 48.56377 | 20.73461 | 34017 ft | 452 kts | 328° |
| 2026-05-07 16:25 | 48.62005 | 20.69330 | 34011 ft | 452 kts | 328° |
| 2026-05-07 16:26 | 48.67669 | 20.65151 | 34003 ft | 453 kts | 328° |
| 2026-05-07 16:26 | 48.73335 | 20.60970 | 34007 ft | 453 kts | 328° |
| 2026-05-07 16:27 | 48.79003 | 20.56781 | 34000 ft | 453 kts | 328° |
| 2026-05-07 16:27 | 48.84680 | 20.52571 | 34041 ft | 453 kts | 328° |
| 2026-05-07 16:28 | 48.90322 | 20.48372 | 34028 ft | 453 kts | 327° |
| 2026-05-07 16:28 | 48.95970 | 20.44160 | 34018 ft | 453 kts | 328° |
| 2026-05-07 16:29 | 49.01645 | 20.39933 | 34014 ft | 454 kts | 328° |
| 2026-05-07 16:29 | 49.07323 | 20.35675 | 34011 ft | 454 kts | 327° |
| 2026-05-07 16:30 | 49.12962 | 20.31434 | 34009 ft | 454 kts | 327° |
| 2026-05-07 16:30 | 49.15804 | 20.29293 | 34154 ft | 457 kts | 327° |
| 2026-05-07 16:30 | 49.18658 | 20.27143 | 34427 ft | 458 kts | 327° |
| 2026-05-07 16:30 | 49.20561 | 20.25707 | 34622 ft | 458 kts | 327° |
| 2026-05-07 16:31 | 49.23419 | 20.23552 | 34955 ft | 458 kts | 328° |
| 2026-05-07 16:31 | 49.26274 | 20.21396 | 35258 ft | 458 kts | 328° |
| 2026-05-07 16:31 | 49.29136 | 20.19231 | 35524 ft | 458 kts | 328° |
| 2026-05-07 16:31 | 49.32002 | 20.17060 | 35842 ft | 457 kts | 328° |
| 2026-05-07 16:32 | 49.35778 | 20.14200 | 35996 ft | 458 kts | 328° |
| 2026-05-07 16:32 | 49.40564 | 20.10568 | 35993 ft | 457 kts | 328° |
| 2026-05-07 16:33 | 49.46437 | 20.06937 | 35995 ft | 467 kts | 347° |
| 2026-05-07 16:33 | 49.49704 | 20.06793 | 36000 ft | 475 kts | 4° |
| 2026-05-07 16:33 | 49.53003 | 20.07499 | 35999 ft | 478 kts | 6° |
| 2026-05-07 16:34 | 49.59593 | 20.09126 | 35987 ft | 479 kts | 6° |
| 2026-05-07 16:34 | 49.66133 | 20.10055 | 35973 ft | 469 kts | 349° |
| 2026-05-07 16:35 | 49.72596 | 20.08543 | 35970 ft | 468 kts | 346° |
| 2026-05-07 16:35 | 49.79012 | 20.06910 | 35967 ft | 469 kts | 346° |
| 2026-05-07 16:36 | 49.85466 | 20.05268 | 35976 ft | 470 kts | 346° |
| 2026-05-07 16:36 | 49.88626 | 20.04127 | 35970 ft | 462 kts | 334° |
| 2026-05-07 16:36 | 49.91511 | 20.02015 | 35964 ft | 456 kts | 327° |
| 2026-05-07 16:37 | 49.97094 | 19.97408 | 35972 ft | 457 kts | 326° |
| 2026-05-07 16:37 | 50.02705 | 19.92715 | 35970 ft | 457 kts | 326° |
| 2026-05-07 16:38 | 50.08290 | 19.88046 | 35961 ft | 457 kts | 326° |
| 2026-05-07 16:38 | 50.13916 | 19.83334 | 35962 ft | 458 kts | 326° |
| 2026-05-07 16:39 | 50.19532 | 19.78622 | 35962 ft | 458 kts | 326° |
| 2026-05-07 16:39 | 50.25110 | 19.73930 | 35964 ft | 458 kts | 326° |
| 2026-05-07 16:40 | 50.30737 | 19.69197 | 35986 ft | 459 kts | 326° |
| 2026-05-07 16:40 | 50.36324 | 19.64469 | 35971 ft | 458 kts | 326° |
| 2026-05-07 16:41 | 50.41948 | 19.59685 | 35967 ft | 459 kts | 326° |
| 2026-05-07 16:41 | 50.47587 | 19.54886 | 35959 ft | 460 kts | 326° |
| 2026-05-07 16:42 | 50.53191 | 19.50115 | 35957 ft | 461 kts | 326° |
| 2026-05-07 16:42 | 50.58839 | 19.45293 | 35964 ft | 461 kts | 326° |
| 2026-05-07 16:43 | 50.64488 | 19.40449 | 35986 ft | 462 kts | 326° |
| 2026-05-07 16:43 | 50.70142 | 19.35593 | 35980 ft | 462 kts | 326° |
| 2026-05-07 16:44 | 50.75764 | 19.30749 | 35977 ft | 462 kts | 326° |
| 2026-05-07 16:44 | 50.81421 | 19.25864 | 35973 ft | 462 kts | 325° |
| 2026-05-07 16:45 | 50.87064 | 19.20960 | 35972 ft | 462 kts | 325° |
| 2026-05-07 16:45 | 50.92710 | 19.16050 | 35999 ft | 462 kts | 326° |
| 2026-05-07 16:46 | 50.98332 | 19.11152 | 35991 ft | 462 kts | 326° |
| 2026-05-07 16:46 | 51.03971 | 19.06214 | 35987 ft | 462 kts | 326° |
| 2026-05-07 16:47 | 51.09621 | 19.01255 | 35984 ft | 462 kts | 325° |
| 2026-05-07 16:47 | 51.15215 | 18.96342 | 35981 ft | 462 kts | 326° |
| 2026-05-07 16:48 | 51.20856 | 18.91388 | 35992 ft | 462 kts | 326° |
| 2026-05-07 16:48 | 51.26490 | 18.86409 | 35987 ft | 462 kts | 325° |
| 2026-05-07 16:49 | 51.32085 | 18.81433 | 36002 ft | 461 kts | 325° |
| 2026-05-07 16:49 | 51.37699 | 18.76434 | 36002 ft | 461 kts | 325° |
| 2026-05-07 16:50 | 51.43304 | 18.71445 | 36006 ft | 461 kts | 325° |
| 2026-05-07 16:50 | 51.48916 | 18.66429 | 36006 ft | 461 kts | 325° |
| 2026-05-07 16:51 | 51.54491 | 18.61427 | 36007 ft | 460 kts | 325° |
| 2026-05-07 16:51 | 51.60084 | 18.56386 | 36033 ft | 460 kts | 325° |
| 2026-05-07 16:52 | 51.65654 | 18.51378 | 36026 ft | 461 kts | 325° |
| 2026-05-07 16:52 | 51.71253 | 18.46315 | 36026 ft | 461 kts | 325° |
| 2026-05-07 16:53 | 51.76852 | 18.41217 | 36025 ft | 461 kts | 325° |
| 2026-05-07 16:53 | 51.82426 | 18.36148 | 36030 ft | 461 kts | 325° |
| 2026-05-07 16:54 | 51.88037 | 18.31045 | 36061 ft | 461 kts | 326° |
| 2026-05-07 16:54 | 51.93596 | 18.25968 | 36046 ft | 461 kts | 325° |
| 2026-05-07 16:55 | 51.99195 | 18.20826 | 36043 ft | 462 kts | 325° |
| 2026-05-07 16:55 | 52.04765 | 18.15702 | 36038 ft | 462 kts | 325° |
| 2026-05-07 16:56 | 52.10365 | 18.10533 | 36044 ft | 462 kts | 325° |
| 2026-05-07 16:56 | 52.18766 | 18.02743 | 36045 ft | 462 kts | 325° |
| 2026-05-07 16:57 | 52.24327 | 17.97578 | 36061 ft | 462 kts | 326° |
| 2026-05-07 16:57 | 52.29915 | 17.92375 | 36055 ft | 462 kts | 326° |
| 2026-05-07 16:58 | 52.35496 | 17.87154 | 36041 ft | 461 kts | 326° |
| 2026-05-07 16:58 | 52.41043 | 17.81951 | 36049 ft | 461 kts | 326° |
| 2026-05-07 16:59 | 52.46630 | 17.76695 | 36058 ft | 461 kts | 326° |
| 2026-05-07 16:59 | 52.52171 | 17.71470 | 36089 ft | 461 kts | 326° |
| 2026-05-07 17:00 | 52.57735 | 17.66202 | 36064 ft | 461 kts | 326° |
| 2026-05-07 17:00 | 52.63292 | 17.60926 | 36062 ft | 461 kts | 326° |
| 2026-05-07 17:01 | 52.68817 | 17.55673 | 36056 ft | 460 kts | 326° |
| 2026-05-07 17:01 | 52.74372 | 17.50374 | 36058 ft | 460 kts | 326° |
| 2026-05-07 17:02 | 52.79914 | 17.45067 | 36058 ft | 460 kts | 326° |
| 2026-05-07 17:02 | 52.85451 | 17.39750 | 36088 ft | 460 kts | 326° |
| 2026-05-07 17:03 | 52.90952 | 17.34456 | 36078 ft | 459 kts | 326° |
| 2026-05-07 17:03 | 52.96473 | 17.29121 | 36071 ft | 459 kts | 326° |
| 2026-05-07 17:04 | 53.01987 | 17.23778 | 36068 ft | 458 kts | 326° |
| 2026-05-07 17:04 | 53.07461 | 17.18448 | 36067 ft | 458 kts | 326° |
| 2026-05-07 17:05 | 53.12962 | 17.13082 | 36071 ft | 458 kts | 326° |
| 2026-05-07 17:05 | 53.18452 | 17.07710 | 36097 ft | 458 kts | 326° |
| 2026-05-07 17:06 | 53.23950 | 17.02324 | 36085 ft | 458 kts | 326° |
| 2026-05-07 17:06 | 53.29423 | 16.96965 | 36079 ft | 458 kts | 326° |
| 2026-05-07 17:07 | 53.34934 | 16.91542 | 36076 ft | 458 kts | 326° |
| 2026-05-07 17:07 | 53.40410 | 16.86115 | 36082 ft | 458 kts | 326° |
| 2026-05-07 17:08 | 53.45900 | 16.80656 | 36080 ft | 458 kts | 326° |
| 2026-05-07 17:08 | 53.51377 | 16.75203 | 36103 ft | 457 kts | 326° |
| 2026-05-07 17:09 | 53.56820 | 16.69765 | 36099 ft | 457 kts | 326° |
| 2026-05-07 17:09 | 53.62281 | 16.64298 | 36097 ft | 456 kts | 326° |
| 2026-05-07 17:10 | 53.67728 | 16.58825 | 36097 ft | 455 kts | 326° |
| 2026-05-07 17:10 | 53.73135 | 16.53370 | 36098 ft | 455 kts | 326° |
| 2026-05-07 17:11 | 53.78576 | 16.47882 | 36101 ft | 454 kts | 326° |
| 2026-05-07 17:11 | 53.83980 | 16.42408 | 36117 ft | 454 kts | 326° |
| 2026-05-07 17:12 | 53.89405 | 16.36895 | 36115 ft | 453 kts | 326° |
| 2026-05-07 17:12 | 53.94809 | 16.31363 | 36119 ft | 452 kts | 326° |
| 2026-05-07 17:13 | 54.00173 | 16.25880 | 36114 ft | 452 kts | 326° |
| 2026-05-07 17:13 | 54.05560 | 16.20364 | 36118 ft | 451 kts | 326° |
| 2026-05-07 17:14 | 54.10946 | 16.14828 | 36116 ft | 451 kts | 326° |
| 2026-05-07 17:14 | 54.16286 | 16.09308 | 36117 ft | 451 kts | 326° |
| 2026-05-07 17:15 | 54.20741 | 16.04689 | 36140 ft | 450 kts | 326° |
| 2026-05-07 17:15 | 54.26103 | 15.99121 | 36137 ft | 449 kts | 326° |
| 2026-05-07 17:16 | 54.31407 | 15.93597 | 36140 ft | 448 kts | 326° |
| 2026-05-07 17:16 | 54.36746 | 15.88019 | 36136 ft | 447 kts | 326° |
| 2026-05-07 17:17 | 54.42024 | 15.82489 | 36132 ft | 447 kts | 326° |
| 2026-05-07 17:17 | 54.47338 | 15.76908 | 36128 ft | 446 kts | 326° |
| 2026-05-07 17:18 | 54.52614 | 15.71340 | 36134 ft | 446 kts | 326° |
| 2026-05-07 17:18 | 54.57918 | 15.65731 | 36136 ft | 445 kts | 326° |
| 2026-05-07 17:19 | 54.63175 | 15.60166 | 36139 ft | 445 kts | 326° |
| 2026-05-07 17:19 | 54.68452 | 15.54551 | 36138 ft | 445 kts | 326° |
| 2026-05-07 17:20 | 54.73728 | 15.48917 | 36138 ft | 445 kts | 326° |
| 2026-05-07 17:20 | 54.78975 | 15.43289 | 36134 ft | 444 kts | 325° |
| 2026-05-07 17:21 | 54.84235 | 15.37638 | 36137 ft | 444 kts | 325° |
| 2026-05-07 17:21 | 54.89452 | 15.32030 | 36156 ft | 443 kts | 326° |
| 2026-05-07 17:22 | 54.94706 | 15.26429 | 36150 ft | 442 kts | 327° |
| 2026-05-07 17:22 | 55.00034 | 15.21038 | 36154 ft | 442 kts | 328° |
| 2026-05-07 17:23 | 55.05340 | 15.15733 | 36147 ft | 441 kts | 328° |
| 2026-05-07 17:23 | 55.10655 | 15.10327 | 36145 ft | 441 kts | 327° |
| 2026-05-07 17:24 | 55.15918 | 15.04914 | 36141 ft | 441 kts | 327° |
| 2026-05-07 17:24 | 55.21223 | 14.99455 | 36148 ft | 441 kts | 328° |
| 2026-05-07 17:25 | 55.26501 | 14.94008 | 36153 ft | 440 kts | 328° |
| 2026-05-07 17:25 | 55.31753 | 14.88566 | 36152 ft | 440 kts | 328° |
| 2026-05-07 17:26 | 55.37026 | 14.83092 | 36148 ft | 439 kts | 328° |
| 2026-05-07 17:26 | 55.42303 | 14.77601 | 36147 ft | 439 kts | 328° |
| 2026-05-07 17:27 | 55.47520 | 14.72147 | 36148 ft | 438 kts | 328° |
| 2026-05-07 17:27 | 55.52764 | 14.66654 | 36147 ft | 438 kts | 328° |
| 2026-05-07 17:28 | 55.58001 | 14.61150 | 36145 ft | 437 kts | 328° |
| 2026-05-07 17:28 | 55.63198 | 14.55661 | 36136 ft | 437 kts | 328° |
| 2026-05-07 17:29 | 55.68433 | 14.50128 | 36143 ft | 436 kts | 328° |
| 2026-05-07 17:29 | 55.73650 | 14.44596 | 36145 ft | 436 kts | 327° |
| 2026-05-07 17:30 | 55.78817 | 14.39093 | 36142 ft | 435 kts | 328° |
| 2026-05-07 17:30 | 55.84003 | 14.33555 | 36139 ft | 434 kts | 328° |
| 2026-05-07 17:31 | 55.89183 | 14.28009 | 36122 ft | 433 kts | 328° |
| 2026-05-07 17:31 | 55.94351 | 14.22455 | 36130 ft | 432 kts | 328° |
| 2026-05-07 17:32 | 55.99469 | 14.16932 | 36130 ft | 431 kts | 328° |
| 2026-05-07 17:32 | 56.04623 | 14.11369 | 36129 ft | 431 kts | 328° |
| 2026-05-07 17:33 | 56.09736 | 14.05837 | 36136 ft | 431 kts | 328° |
| 2026-05-07 17:33 | 56.14865 | 14.00242 | 36134 ft | 430 kts | 328° |
| 2026-05-07 17:34 | 56.19956 | 13.94677 | 36129 ft | 430 kts | 328° |
| 2026-05-07 17:34 | 56.25081 | 13.89067 | 36128 ft | 430 kts | 328° |
| 2026-05-07 17:35 | 56.30175 | 13.83486 | 36126 ft | 430 kts | 328° |
| 2026-05-07 17:35 | 56.35287 | 13.77852 | 36135 ft | 429 kts | 327° |
| 2026-05-07 17:36 | 56.40348 | 13.72244 | 36129 ft | 429 kts | 327° |
| 2026-05-07 17:36 | 56.45439 | 13.66597 | 36125 ft | 428 kts | 327° |
| 2026-05-07 17:37 | 56.50526 | 13.60951 | 36134 ft | 428 kts | 327° |
| 2026-05-07 17:37 | 56.55570 | 13.55325 | 36126 ft | 427 kts | 327° |
| 2026-05-07 17:38 | 56.60644 | 13.49637 | 36128 ft | 428 kts | 327° |
| 2026-05-07 17:38 | 56.65684 | 13.43980 | 36144 ft | 427 kts | 327° |
| 2026-05-07 17:39 | 56.70751 | 13.38267 | 36144 ft | 427 kts | 327° |
| 2026-05-07 17:39 | 56.75798 | 13.32565 | 36141 ft | 426 kts | 327° |
| 2026-05-07 17:40 | 56.80819 | 13.26865 | 36139 ft | 426 kts | 327° |
| 2026-05-07 17:40 | 56.85859 | 13.21139 | 36138 ft | 425 kts | 327° |
| 2026-05-07 17:41 | 56.90857 | 13.15436 | 36129 ft | 425 kts | 327° |
| 2026-05-07 17:41 | 56.95881 | 13.09690 | 36128 ft | 425 kts | 327° |
| 2026-05-07 17:42 | 57.00889 | 13.03927 | 36155 ft | 425 kts | 326° |
| 2026-05-07 17:42 | 57.05868 | 12.98175 | 36143 ft | 424 kts | 326° |
| 2026-05-07 17:43 | 57.10880 | 12.92391 | 36138 ft | 423 kts | 326° |
| 2026-05-07 17:43 | 57.15840 | 12.86649 | 36135 ft | 423 kts | 326° |
| 2026-05-07 17:44 | 57.20820 | 12.80840 | 36132 ft | 423 kts | 326° |
| 2026-05-07 17:44 | 57.25795 | 12.75036 | 36130 ft | 422 kts | 326° |
| 2026-05-07 17:45 | 57.30740 | 12.69256 | 36147 ft | 422 kts | 326° |
| 2026-05-07 17:45 | 57.35709 | 12.63416 | 36144 ft | 421 kts | 326° |
| 2026-05-07 17:46 | 57.40623 | 12.57608 | 36140 ft | 420 kts | 325° |
| 2026-05-07 17:46 | 57.45564 | 12.51759 | 36146 ft | 420 kts | 325° |
| 2026-05-07 17:47 | 57.50494 | 12.45923 | 36141 ft | 420 kts | 325° |
| 2026-05-07 17:47 | 57.55406 | 12.40086 | 36135 ft | 420 kts | 325° |
| 2026-05-07 17:48 | 57.60308 | 12.34237 | 36158 ft | 420 kts | 325° |
| 2026-05-07 17:48 | 57.65220 | 12.28360 | 36152 ft | 419 kts | 325° |
| 2026-05-07 17:49 | 57.70135 | 12.22448 | 36137 ft | 418 kts | 324° |
| 2026-05-07 17:49 | 57.75009 | 12.16563 | 36165 ft | 418 kts | 324° |
| 2026-05-07 17:50 | 57.79899 | 12.10642 | 36166 ft | 418 kts | 324° |
| 2026-05-07 17:50 | 57.84759 | 12.04743 | 36166 ft | 418 kts | 324° |
| 2026-05-07 17:51 | 57.89647 | 11.98792 | 36157 ft | 418 kts | 324° |
| 2026-05-07 17:51 | 57.94524 | 11.92831 | 36177 ft | 417 kts | 324° |
| 2026-05-07 17:52 | 57.99388 | 11.86885 | 36167 ft | 417 kts | 324° |
| 2026-05-07 17:52 | 58.04254 | 11.80914 | 36152 ft | 416 kts | 324° |
| 2026-05-07 17:53 | 58.09077 | 11.74955 | 36148 ft | 416 kts | 324° |
| 2026-05-07 17:53 | 58.13926 | 11.68954 | 36145 ft | 416 kts | 324° |
| 2026-05-07 17:54 | 58.19126 | 11.64068 | 36147 ft | 422 kts | 340° |
| 2026-05-07 17:54 | 58.24904 | 11.61986 | 36152 ft | 425 kts | 347° |
| 2026-05-07 17:55 | 58.30758 | 11.60147 | 36143 ft | 425 kts | 347° |
| 2026-05-07 17:55 | 58.36564 | 11.58285 | 36143 ft | 425 kts | 347° |
| 2026-05-07 17:56 | 58.42415 | 11.56398 | 36143 ft | 425 kts | 347° |
| 2026-05-07 17:56 | 58.48256 | 11.54525 | 36143 ft | 425 kts | 347° |
| 2026-05-07 17:57 | 58.53128 | 11.52966 | 36087 ft | 425 kts | 346° |
| 2026-05-07 17:57 | 58.57012 | 11.51713 | 35168 ft | 428 kts | 346° |
| 2026-05-07 17:57 | 58.59933 | 11.50764 | 34761 ft | 422 kts | 346° |
| 2026-05-07 17:58 | 58.62838 | 11.49822 | 34297 ft | 419 kts | 346° |
| 2026-05-07 17:58 | 58.65670 | 11.48906 | 33797 ft | 415 kts | 346° |
| 2026-05-07 17:58 | 58.68504 | 11.47987 | 33337 ft | 410 kts | 346° |
| 2026-05-07 17:58 | 58.71328 | 11.47069 | 32886 ft | 413 kts | 346° |
| 2026-05-07 17:59 | 58.74175 | 11.46140 | 32424 ft | 413 kts | 346° |
| 2026-05-07 17:59 | 58.77007 | 11.45218 | 31964 ft | 411 kts | 346° |
| 2026-05-07 17:59 | 58.79788 | 11.44312 | 31528 ft | 409 kts | 346° |
| 2026-05-07 17:59 | 58.82597 | 11.43463 | 31159 ft | 408 kts | 350° |
| 2026-05-07 18:00 | 58.85459 | 11.43445 | 30847 ft | 411 kts | 356° |
| 2026-05-07 18:00 | 58.88309 | 11.43584 | 30410 ft | 408 kts | 356° |
| 2026-05-07 18:00 | 58.91144 | 11.43726 | 29943 ft | 406 kts | 356° |
| 2026-05-07 18:00 | 58.93926 | 11.43864 | 29532 ft | 403 kts | 356° |
| 2026-05-07 18:01 | 58.96725 | 11.44006 | 29115 ft | 401 kts | 356° |
| 2026-05-07 18:01 | 58.99514 | 11.44156 | 28711 ft | 399 kts | 356° |
| 2026-05-07 18:01 | 59.02278 | 11.44309 | 28316 ft | 397 kts | 356° |
| 2026-05-07 18:01 | 59.04105 | 11.44409 | 28053 ft | 395 kts | 356° |
| 2026-05-07 18:02 | 59.09590 | 11.44709 | 27247 ft | 391 kts | 356° |
| 2026-05-07 18:02 | 59.12302 | 11.44848 | 26839 ft | 387 kts | 355° |
| 2026-05-07 18:02 | 59.14963 | 11.44982 | 26473 ft | 385 kts | 355° |
| 2026-05-07 18:03 | 59.17632 | 11.45125 | 26074 ft | 383 kts | 355° |
| 2026-05-07 18:03 | 59.20293 | 11.45270 | 25647 ft | 381 kts | 355° |
| 2026-05-07 18:03 | 59.22942 | 11.45412 | 25219 ft | 379 kts | 355° |
| 2026-05-07 18:03 | 59.25580 | 11.45550 | 24788 ft | 377 kts | 355° |
| 2026-05-07 18:04 | 59.28176 | 11.45687 | 24356 ft | 376 kts | 355° |
| 2026-05-07 18:04 | 59.30786 | 11.45744 | 24075 ft | 371 kts | 354° |
| 2026-05-07 18:04 | 59.33360 | 11.45674 | 23844 ft | 369 kts | 353° |
| 2026-05-07 18:04 | 59.35927 | 11.45532 | 23603 ft | 368 kts | 352° |
| 2026-05-07 18:05 | 59.38485 | 11.45368 | 23343 ft | 367 kts | 352° |
| 2026-05-07 18:05 | 59.41029 | 11.45206 | 23064 ft | 365 kts | 352° |
| 2026-05-07 18:05 | 59.43571 | 11.45055 | 22787 ft | 363 kts | 352° |
| 2026-05-07 18:05 | 59.46093 | 11.44917 | 22508 ft | 362 kts | 352° |
| 2026-05-07 18:06 | 59.48621 | 11.44789 | 22238 ft | 361 kts | 353° |
| 2026-05-07 18:06 | 59.51097 | 11.44671 | 21852 ft | 360 kts | 353° |
| 2026-05-07 18:06 | 59.53598 | 11.44554 | 21432 ft | 358 kts | 353° |
| 2026-05-07 18:06 | 59.56075 | 11.44442 | 21001 ft | 356 kts | 353° |
| 2026-05-07 18:07 | 59.58556 | 11.44327 | 20576 ft | 355 kts | 353° |
| 2026-05-07 18:07 | 59.61013 | 11.44210 | 20151 ft | 353 kts | 353° |
| 2026-05-07 18:07 | 59.63466 | 11.44096 | 19727 ft | 352 kts | 353° |
| 2026-05-07 18:07 | 59.65908 | 11.43984 | 19302 ft | 350 kts | 353° |
| 2026-05-07 18:08 | 59.68345 | 11.43872 | 18896 ft | 349 kts | 353° |
| 2026-05-07 18:08 | 59.70770 | 11.43760 | 18454 ft | 347 kts | 353° |
| 2026-05-07 18:08 | 59.73176 | 11.43649 | 17992 ft | 345 kts | 354° |
| 2026-05-07 18:08 | 59.75567 | 11.43535 | 17572 ft | 343 kts | 354° |
| 2026-05-07 18:09 | 59.77949 | 11.43420 | 17155 ft | 340 kts | 354° |
| 2026-05-07 18:09 | 59.80277 | 11.43307 | 16740 ft | 338 kts | 354° |
| 2026-05-07 18:09 | 59.82626 | 11.43191 | 16350 ft | 335 kts | 354° |
| 2026-05-07 18:09 | 59.84923 | 11.43080 | 16212 ft | 324 kts | 354° |
| 2026-05-07 18:10 | 59.87146 | 11.42977 | 16064 ft | 314 kts | 354° |
| 2026-05-07 18:10 | 59.89289 | 11.42879 | 15736 ft | 307 kts | 354° |
| 2026-05-07 18:10 | 59.91413 | 11.42780 | 15095 ft | 304 kts | 354° |
| 2026-05-07 18:10 | 59.93519 | 11.42681 | 14464 ft | 301 kts | 354° |
| 2026-05-07 18:11 | 59.95611 | 11.42581 | 13841 ft | 299 kts | 354° |
| 2026-05-07 18:11 | 59.97693 | 11.42474 | 13218 ft | 299 kts | 355° |
| 2026-05-07 18:11 | 59.99780 | 11.42367 | 12804 ft | 299 kts | 355° |
| 2026-05-07 18:11 | 60.01857 | 11.42266 | 12435 ft | 298 kts | 355° |
| 2026-05-07 18:12 | 60.03923 | 11.42167 | 12071 ft | 296 kts | 355° |
| 2026-05-07 18:12 | 60.05962 | 11.42070 | 11711 ft | 295 kts | 355° |
| 2026-05-07 18:12 | 60.07993 | 11.41977 | 11527 ft | 287 kts | 355° |
| 2026-05-07 18:12 | 60.09946 | 11.41892 | 11359 ft | 273 kts | 355° |
| 2026-05-07 18:13 | 60.11816 | 11.41810 | 10936 ft | 265 kts | 355° |
| 2026-05-07 18:13 | 60.13654 | 11.41723 | 10446 ft | 262 kts | 356° |
| 2026-05-07 18:13 | 60.15476 | 11.41629 | 9956 ft | 260 kts | 356° |
| 2026-05-07 18:13 | 60.17261 | 11.41534 | 9577 ft | 259 kts | 356° |
| 2026-05-07 18:14 | 60.19070 | 11.41436 | 9272 ft | 261 kts | 356° |
| 2026-05-07 18:14 | 60.20868 | 11.41344 | 9078 ft | 255 kts | 356° |
| 2026-05-07 18:14 | 60.22615 | 11.41259 | 8923 ft | 248 kts | 356° |
| 2026-05-07 18:14 | 60.24332 | 11.41175 | 8673 ft | 245 kts | 356° |
| 2026-05-07 18:15 | 60.26039 | 11.41092 | 8379 ft | 244 kts | 357° |
| 2026-05-07 18:15 | 60.27734 | 11.41009 | 8068 ft | 244 kts | 357° |
| 2026-05-07 18:15 | 60.29416 | 11.40922 | 7764 ft | 244 kts | 357° |
| 2026-05-07 18:15 | 60.31113 | 11.40833 | 7466 ft | 243 kts | 357° |
| 2026-05-07 18:16 | 60.32810 | 11.40753 | 7169 ft | 243 kts | 358° |
| 2026-05-07 18:16 | 60.34502 | 11.40674 | 6850 ft | 241 kts | 358° |
| 2026-05-07 18:16 | 60.36171 | 11.40591 | 6348 ft | 240 kts | 358° |
| 2026-05-07 18:16 | 60.37798 | 11.40504 | 6172 ft | 238 kts | 358° |
| 2026-05-07 18:17 | 60.39457 | 11.40205 | 6060 ft | 240 kts | 341° |
| 2026-05-07 18:17 | 60.40851 | 11.38467 | 5953 ft | 237 kts | 309° |
| 2026-05-07 18:17 | 60.41618 | 11.35539 | 5496 ft | 240 kts | 278° |
| 2026-05-07 18:17 | 60.41553 | 11.32211 | 4946 ft | 236 kts | 259° |
| 2026-05-07 18:18 | 60.41289 | 11.28920 | 4417 ft | 234 kts | 260° |
| 2026-05-07 18:18 | 60.41035 | 11.25725 | 4037 ft | 227 kts | 258° |
| 2026-05-07 18:18 | 60.40494 | 11.22731 | 4006 ft | 228 kts | 238° |
| 2026-05-07 18:18 | 60.39467 | 11.20290 | 4005 ft | 229 kts | 218° |
| 2026-05-07 18:19 | 60.38086 | 11.18747 | 3998 ft | 223 kts | 198° |
| 2026-05-07 18:19 | 60.36618 | 11.17875 | 3795 ft | 218 kts | 195° |
| 2026-05-07 18:19 | 60.35188 | 11.17051 | 3525 ft | 216 kts | 195° |
| 2026-05-07 18:19 | 60.33773 | 11.16229 | 3239 ft | 207 kts | 196° |
| 2026-05-07 18:20 | 60.32416 | 11.15438 | 2991 ft | 200 kts | 196° |
| 2026-05-07 18:20 | 60.31117 | 11.14682 | 2696 ft | 188 kts | 195° |
| 2026-05-07 18:20 | 60.29894 | 11.13971 | 2447 ft | 177 kts | 196° |
| 2026-05-07 18:20 | 60.28740 | 11.13301 | 2207 ft | 168 kts | 195° |
| 2026-05-07 18:21 | 60.27650 | 11.12669 | 1985 ft | 159 kts | 195° |
| 2026-05-07 18:21 | 60.26617 | 11.12069 | 1774 ft | 150 kts | 195° |
| 2026-05-07 18:21 | 60.25651 | 11.11509 | 1572 ft | 141 kts | 195° |
| 2026-05-07 18:21 | 60.24725 | 11.10973 | 1375 ft | 139 kts | 195° |
| 2026-05-07 18:22 | 60.23782 | 11.10427 | 1181 ft | 139 kts | 195° |
| 2026-05-07 18:22 | 60.23168 | 11.10071 | 1052 ft | 139 kts | 196° |
| 2026-05-07 18:22 | 60.21928 | 11.09356 | 796 ft | 139 kts | 195° |
| 2026-05-07 18:22 | 60.21023 | 11.08836 | 684 ft | 127 kts | 195° |
| 2026-05-07 18:23 | 60.20327 | 11.08428 | 677 ft | 79 kts | 196° |
| 2026-05-07 18:23 | 60.20010 | 11.08277 | 676 ft | 16 kts | 174° |
| 2026-05-07 18:23 | 60.19917 | 11.08360 | 675 ft | 16 kts | 133° |
| 2026-05-07 18:23 | 60.19873 | 11.08570 | 678 ft | 16 kts | 105° |
| 2026-05-07 18:24 | 60.19841 | 11.08808 | 677 ft | 20 kts | 105° |
| 2026-05-07 18:24 | 60.19804 | 11.09073 | 682 ft | 19 kts | 105° |
| 2026-05-07 18:24 | 60.19765 | 11.09351 | 679 ft | 22 kts | 106° |
| 2026-05-07 18:24 | 60.19719 | 11.09662 | 683 ft | 24 kts | 106° |
| 2026-05-07 18:25 | 60.19633 | 11.09726 | 684 ft | 14 kts | 183° |
| 2026-05-07 18:25 | 60.19560 | 11.09848 | 685 ft | 12 kts | 104° |
| 2026-05-07 18:25 | 60.19553 | 11.09909 | 685 ft | 1 kts | 105° |
| 2026-05-07 18:25 | 60.19553 | 11.09912 | 685 ft | 0 kts | 106° |